Time;durP1;ratioP1;P1;durP2;ratioP2;P2;SDS_P1;SDS_P2;PMS_P1;PMS_P2;Temp;Humidity;BMP_temperature;BMP_pressure;BME280_temperature;BME280_humidity;BME280_pressure;Samples;Min_cycle;Max_cycle;Signal;HPM_P1;HPM_P2
2022/06/17 00:01:37;;;;;;;8.02;4.65;;;21.00;95.80;;;;;;5084183;28;20027;-86
2022/06/17 00:04:03;;;;;;;7.55;4.95;;;20.90;95.70;;;;;;5030261;28;20030;-86
2022/06/17 00:06:40;;;;;;;6.28;4.50;;;20.90;95.50;;;;;;5012860;28;20086;-86
2022/06/17 00:09:07;;;;;;;8.15;4.43;;;20.80;95.50;;;;;;5029641;28;20243;-86
2022/06/17 00:11:35;;;;;;;6.72;4.72;;;20.80;95.50;;;;;;5013307;28;20037;-86
2022/06/17 00:14:02;;;;;;;6.72;4.70;;;20.80;95.40;;;;;;5029475;28;20505;-86
2022/06/17 00:16:29;;;;;;;7.70;4.38;;;20.70;95.40;;;;;;5030592;28;20116;-86
2022/06/17 00:18:55;;;;;;;6.80;4.30;;;20.70;95.40;;;;;;5030002;28;20474;-86
2022/06/17 00:21:35;;;;;;;7.15;4.28;;;20.70;95.40;;;;;;5029957;28;20385;-86
2022/06/17 00:24:06;;;;;;;6.88;4.13;;;20.60;95.70;;;;;;5014564;28;20473;-86
2022/06/17 00:26:31;;;;;;;7.80;4.85;;;20.60;95.80;;;;;;5024910;28;20080;-86
2022/06/17 00:28:57;;;;;;;8.70;4.40;;;20.60;95.90;;;;;;5034463;28;20478;-86
2022/06/17 00:31:23;;;;;;;8.70;4.55;;;20.60;96.30;;;;;;5022731;28;20026;-87
2022/06/17 00:33:48;;;;;;;6.28;4.65;;;20.50;96.50;;;;;;5028589;28;20029;-85
2022/06/17 00:36:17;;;;;;;6.60;4.88;;;20.60;96.80;;;;;;5027469;28;20074;-86
2022/06/17 00:38:44;;;;;;;7.60;4.75;;;20.50;97.10;;;;;;5034527;28;20033;-84
2022/06/17 00:41:16;;;;;;;7.65;5.38;;;20.50;97.30;;;;;;5016048;28;20025;-86
2022/06/17 00:43:44;;;;;;;7.68;5.05;;;20.50;97.40;;;;;;5032703;28;20030;-86
2022/06/17 00:46:41;;;;;;;6.88;4.82;;;20.50;97.50;;;;;;5032633;28;20026;-86
2022/06/17 00:49:22;;;;;;;7.00;5.30;;;20.40;97.50;;;;;;5022134;28;20017;-86
2022/06/17 00:52:00;;;;;;;8.80;5.68;;;20.40;97.60;;;;;;5032529;28;20474;-86
2022/06/17 00:54:31;;;;;;;8.35;4.95;;;20.40;97.70;;;;;;5033471;28;20478;-86
2022/06/17 00:56:57;;;;;;;8.63;5.30;;;20.40;97.80;;;;;;5032273;28;20021;-86
2022/06/17 00:59:25;;;;;;;9.15;5.53;;;20.40;98.00;;;;;;5032845;28;20037;-86
2022/06/17 01:02:22;;;;;;;8.07;5.35;;;20.30;98.00;;;;;;5016994;28;20471;-86
2022/06/17 01:04:49;;;;;;;6.93;5.07;;;20.30;98.30;;;;;;5016956;28;20029;-86
2022/06/17 01:07:25;;;;;;;7.80;5.50;;;20.30;98.40;;;;;;5015662;28;20034;-86
2022/06/17 01:09:58;;;;;;;7.03;5.70;;;20.30;98.60;;;;;;5032101;28;20060;-86
2022/06/17 01:15:42;;;;;;;9.93;6.28;;;20.30;98.70;;;;;;5033163;28;20033;-85
2022/06/17 01:18:09;;;;;;;7.38;5.28;;;20.20;98.20;;;;;;5031767;28;20014;-85
2022/06/17 01:20:37;;;;;;;15.00;6.47;;;20.20;98.10;;;;;;5015398;28;20029;-85
2022/06/17 01:23:11;;;;;;;8.23;5.07;;;20.20;98.40;;;;;;5031597;28;20049;-85
2022/06/17 01:25:41;;;;;;;7.50;5.78;;;20.20;98.60;;;;;;5012074;28;20534;-85
2022/06/17 01:28:11;;;;;;;9.73;5.80;;;20.20;98.70;;;;;;5025298;28;20060;-85
2022/06/17 01:30:41;;;;;;;7.57;5.40;;;20.20;98.80;;;;;;5098062;27;20039;-85
2022/06/17 01:33:22;;;;;;;7.97;5.65;;;20.20;98.80;;;;;;5062348;27;20420;-85
2022/06/17 01:35:56;;;;;;;;;;;20.10;98.90;;;;;;5136244;27;20038;-85
2022/06/17 01:38:23;;;;;;;7.38;5.10;;;20.10;98.90;;;;;;5017892;28;19905;-85
2022/06/17 01:40:52;;;;;;;10.00;5.53;;;20.10;98.90;;;;;;5015123;28;20057;-85
2022/06/17 01:43:21;;;;;;;7.88;5.65;;;20.10;99.00;;;;;;5031424;28;20064;-85
2022/06/17 01:45:54;;;;;;;10.10;6.13;;;20.10;99.10;;;;;;5031452;28;20033;-85
2022/06/17 01:48:24;;;;;;;8.70;5.60;;;20.00;99.20;;;;;;5032689;28;20034;-85
2022/06/17 01:50:51;;;;;;;7.45;5.90;;;20.00;99.30;;;;;;5031170;28;20379;-85
2022/06/17 01:53:21;;;;;;;8.10;6.13;;;20.00;99.40;;;;;;5029964;27;20080;-85
2022/06/17 01:55:54;;;;;;;8.68;5.70;;;20.00;99.50;;;;;;5135352;27;20384;-85
2022/06/17 01:58:32;;;;;;;11.15;6.78;;;20.00;99.40;;;;;;5135339;27;20015;-86
2022/06/17 02:01:00;;;;;;;8.27;6.45;;;20.00;99.40;;;;;;5084167;27;20026;-85
2022/06/17 02:03:36;;;;;;;8.40;6.20;;;19.90;99.50;;;;;;5030279;28;20033;-85
2022/06/17 02:06:19;;;;;;;10.55;6.32;;;19.90;99.40;;;;;;5030551;28;20028;-85
2022/06/17 02:08:44;;;;;;;10.32;6.22;;;19.90;99.50;;;;;;5030283;28;20021;-85
2022/06/17 02:11:11;;;;;;;9.13;6.50;;;19.90;99.60;;;;;;5030609;28;20033;-85
2022/06/17 02:13:37;;;;;;;8.18;6.53;;;19.90;99.60;;;;;;5014012;28;20081;-85
2022/06/17 02:16:04;;;;;;;9.77;7.10;;;19.80;99.50;;;;;;5014826;28;20538;-85
2022/06/17 02:18:31;;;;;;;9.65;7.22;;;19.80;99.70;;;;;;5030879;28;20025;-85
2022/06/17 02:21:01;;;;;;;7.93;7.00;;;19.80;99.80;;;;;;5014517;28;20033;-85
2022/06/17 02:23:27;;;;;;;8.07;7.20;;;19.70;99.80;;;;;;5030818;28;20570;-85
2022/06/17 02:25:56;;;;;;;9.88;6.97;;;19.70;99.90;;;;;;5030863;28;20030;-85
2022/06/17 02:28:23;;;;;;;9.43;7.30;;;19.70;99.90;;;;;;5030718;28;20421;-85
2022/06/17 02:30:50;;;;;;;8.73;6.82;;;19.70;99.90;;;;;;5030657;28;20026;-85
2022/06/17 02:33:17;;;;;;;8.52;6.88;;;19.70;99.90;;;;;;5030535;28;20102;-85
2022/06/17 02:36:01;;;;;;;8.88;6.88;;;19.70;99.90;;;;;;5016808;28;20018;-85
2022/06/17 02:38:30;;;;;;;8.05;6.85;;;19.60;99.90;;;;;;5030698;28;20528;-85
2022/06/17 02:41:00;;;;;;;10.80;7.47;;;19.60;99.90;;;;;;5030657;28;20025;-85
2022/06/17 02:43:29;;;;;;;8.60;6.78;;;19.60;99.90;;;;;;5030761;28;20120;-86
2022/06/17 02:46:01;;;;;;;7.95;7.07;;;19.50;99.90;;;;;;5030561;28;20033;-85
2022/06/17 02:48:32;;;;;;;11.48;7.07;;;19.50;99.90;;;;;;5030961;28;20077;-85
2022/06/17 02:51:00;;;;;;;8.02;7.18;;;19.50;99.90;;;;;;5035452;28;20466;-86
2022/06/17 02:53:36;;;;;;;10.57;6.50;;;19.50;99.90;;;;;;5030133;28;20490;-85
2022/06/17 02:56:18;;;;;;;8.73;6.80;;;19.50;99.90;;;;;;5032090;28;20070;-85
2022/06/17 02:59:13;;;;;;;10.68;6.82;;;19.40;99.90;;;;;;5030717;28;20452;-86
2022/06/17 03:01:41;;;;;;;9.70;6.47;;;19.40;99.90;;;;;;5030488;28;20070;-86
2022/06/17 03:04:20;;;;;;;9.18;6.85;;;19.40;99.90;;;;;;5029935;28;20032;-86
2022/06/17 03:06:48;;;;;;;8.90;6.80;;;19.30;99.90;;;;;;5104818;27;20060;-86
2022/06/17 03:09:26;;;;;;;10.35;7.20;;;19.30;99.90;;;;;;5027284;28;20517;-85
2022/06/17 03:12:08;;;;;;;8.30;6.82;;;19.30;99.90;;;;;;5063513;27;20062;-85
2022/06/17 03:14:39;;;;;;;9.20;6.93;;;19.20;99.90;;;;;;5072437;27;20041;-85
2022/06/17 03:17:09;;;;;;;12.50;7.75;;;19.20;99.90;;;;;;5043401;28;20107;-85
2022/06/17 03:19:36;;;;;;;11.10;8.57;;;19.10;99.90;;;;;;5022926;28;20387;-85
2022/06/17 03:22:10;;;;;;;11.23;8.45;;;19.10;99.90;;;;;;5124285;27;20020;-85
2022/06/17 03:24:45;;;;;;;13.60;8.65;;;19.10;99.90;;;;;;5134128;27;20433;-85
2022/06/17 03:27:22;;;;;;;9.73;7.72;;;19.00;99.90;;;;;;5110686;27;20087;-85
2022/06/17 03:29:50;;;;;;;11.65;8.15;;;19.00;99.90;;;;;;5031154;28;20078;-85
2022/06/17 03:32:21;;;;;;;9.23;7.68;;;19.00;99.90;;;;;;5031402;28;20098;-85
2022/06/17 03:34:53;;;;;;;9.40;7.97;;;19.00;99.90;;;;;;5030178;28;20116;-86
2022/06/17 03:37:24;;;;;;;8.90;7.18;;;19.00;99.90;;;;;;5030397;28;20064;-85
2022/06/17 03:40:16;;;;;;;10.05;7.85;;;18.90;99.90;;;;;;5030240;28;20409;-84
2022/06/17 03:43:21;;;;;;;10.55;7.75;;;18.90;99.90;;;;;;5030243;28;20479;-85
2022/06/17 03:46:00;;;;;;;9.35;8.10;;;18.90;99.90;;;;;;5031133;28;20478;-84
2022/06/17 03:48:38;;;;;;;11.48;8.93;;;18.90;99.90;;;;;;5014402;28;20039;-85
2022/06/17 03:51:04;;;;;;;11.02;9.38;;;18.80;99.90;;;;;;5010220;28;20041;-85
2022/06/17 03:53:33;;;;;;;10.30;8.68;;;18.80;99.90;;;;;;5022836;28;20102;-85
2022/06/17 03:56:33;;;;;;;9.77;8.77;;;18.80;99.90;;;;;;5029781;28;20101;-85
2022/06/17 03:59:04;;;;;;;11.63;8.50;;;18.80;99.90;;;;;;5029524;28;20493;-84
2022/06/17 04:01:39;;;;;;;10.52;8.23;;;18.80;99.90;;;;;;5029555;28;20424;-84
2022/06/17 04:04:21;;;;;;;12.52;8.45;;;18.80;99.90;;;;;;5102693;28;20527;-85
2022/06/17 04:06:50;;;;;;;10.80;8.68;;;18.80;99.90;;;;;;5093739;23;20048;-87
2022/06/17 04:09:40;;;;;;;10.57;8.52;;;18.80;99.90;;;;;;5109114;28;20031;-87
2022/06/17 04:12:19;;;;;;;11.88;8.68;;;18.80;99.90;;;;;;5112154;28;20027;-87
2022/06/17 04:15:06;;;;;;;9.90;8.48;;;18.80;99.90;;;;;;5114916;28;20023;-88
2022/06/17 04:17:32;;;;;;;11.07;9.35;;;18.80;99.90;;;;;;5103859;28;20016;-88
2022/06/17 04:20:13;;;;;;;10.90;8.77;;;18.90;99.90;;;;;;5116449;28;20031;-87
2022/06/17 04:22:38;;;;;;;;;;;18.90;99.90;;;;;;5117397;28;20027;-87
2022/06/17 04:25:07;;;;;;;11.43;8.88;;;18.90;99.90;;;;;;5094981;28;19911;-88
2022/06/17 04:30:21;;;;;;;10.13;7.95;;;18.90;99.90;;;;;;5098178;28;20483;-88
2022/06/17 04:32:52;;;;;;;10.82;8.85;;;18.90;99.90;;;;;;5110804;28;20058;-88
2022/06/17 04:35:18;;;;;;;9.18;8.18;;;18.90;99.90;;;;;;5121289;28;20020;-88
2022/06/17 04:37:45;;;;;;;10.27;8.65;;;18.90;99.90;;;;;;5123098;28;20031;-88
2022/06/17 04:40:39;;;;;;;10.30;8.20;;;18.90;99.90;;;;;;5117714;28;20023;-88
2022/06/17 04:43:18;;;;;;;11.60;8.40;;;19.00;99.90;;;;;;5113058;28;20077;-88
2022/06/17 04:45:53;;;;;;;8.93;7.68;;;18.90;99.90;;;;;;5104207;28;20027;-88
2022/06/17 04:48:19;;;;;;;8.80;7.90;;;18.90;99.90;;;;;;5096605;28;20032;-87
2022/06/17 04:50:45;;;;;;;12.30;8.05;;;18.90;99.90;;;;;;5079449;28;20034;-88
2022/06/17 04:53:11;;;;;;;11.43;8.25;;;19.00;99.90;;;;;;5083997;28;20069;-88
2022/06/17 04:55:41;;;;;;;10.93;8.07;;;19.00;99.90;;;;;;5100380;28;20024;-87
2022/06/17 04:58:11;;;;;;;9.55;7.35;;;18.90;99.90;;;;;;5117405;27;20023;-88
2022/06/17 05:00:36;;;;;;;11.15;7.63;;;18.90;99.90;;;;;;5111288;28;20110;-88
2022/06/17 05:03:02;;;;;;;8.80;7.30;;;18.90;99.90;;;;;;5081836;28;20055;-89
2022/06/17 05:05:33;;;;;;;9.15;7.28;;;18.90;99.90;;;;;;5091101;28;20051;-89
2022/06/17 05:08:03;;;;;;;8.63;6.70;;;18.90;99.90;;;;;;5117453;28;20372;-89
2022/06/17 05:10:34;;;;;;;9.60;6.35;;;18.90;99.90;;;;;;5118165;28;20024;-89
2022/06/17 05:13:07;;;;;;;8.27;6.55;;;18.90;99.90;;;;;;5115049;28;20579;-89
2022/06/17 05:15:33;;;;;;;13.45;7.20;;;18.90;99.90;;;;;;5097046;28;20020;-89
2022/06/17 05:17:58;;;;;;;9.75;7.40;;;18.80;99.90;;;;;;5093894;28;20118;-89
2022/06/17 05:20:25;;;;;;;22.88;7.90;;;18.80;99.90;;;;;;5118400;28;20103;-89
2022/06/17 05:23:04;;;;;;;13.77;6.78;;;18.80;99.90;;;;;;5081122;28;20377;-89
2022/06/17 05:25:39;;;;;;;17.08;7.20;;;18.90;99.90;;;;;;5105065;28;20022;-90
2022/06/17 05:28:07;;;;;;;9.93;6.30;;;18.80;99.90;;;;;;5117431;28;20031;-90
2022/06/17 05:30:41;;;;;;;12.43;6.90;;;18.80;99.90;;;;;;5100262;28;20032;-90
2022/06/17 05:33:12;;;;;;;20.08;11.02;;;18.80;99.90;;;;;;5116356;28;20038;-89
2022/06/17 05:35:37;;;;;;;15.60;9.38;;;18.80;99.90;;;;;;5117962;28;20023;-90
2022/06/17 05:38:03;;;;;;;14.43;8.88;;;18.80;99.90;;;;;;5100596;28;20049;-89
2022/06/17 05:40:29;;;;;;;9.93;7.10;;;18.80;99.90;;;;;;5080489;28;20016;-90
2022/06/17 05:42:54;;;;;;;9.50;6.75;;;18.80;99.90;;;;;;5078819;28;20027;-90
2022/06/17 05:45:23;;;;;;;13.15;8.75;;;18.80;99.90;;;;;;5083098;28;20111;-89
2022/06/17 05:47:49;;;;;;;11.02;7.13;;;18.90;99.90;;;;;;5115453;28;20012;-89
2022/06/17 05:50:16;;;;;;;12.38;6.90;;;18.90;99.90;;;;;;5096416;28;20031;-89
2022/06/17 05:53:01;;;;;;;12.60;7.03;;;18.90;99.90;;;;;;5106963;28;20483;-89
2022/06/17 05:55:29;;;;;;;9.95;6.38;;;18.90;99.90;;;;;;5101092;28;20518;-89
2022/06/17 05:57:55;;;;;;;11.05;7.45;;;18.90;99.90;;;;;;5115191;28;20019;-89
2022/06/17 06:00:23;;;;;;;10.15;6.65;;;19.00;99.90;;;;;;5114265;28;20035;-89
2022/06/17 06:02:49;;;;;;;10.82;6.75;;;19.00;99.80;;;;;;5094936;28;20020;-90
2022/06/17 06:05:19;;;;;;;9.88;6.03;;;19.00;99.50;;;;;;5088853;28;20055;-89
2022/06/17 06:07:44;;;;;;;11.90;7.00;;;19.10;99.40;;;;;;5110018;28;20118;-89
2022/06/17 06:10:14;;;;;;;10.85;6.70;;;19.10;99.20;;;;;;5092422;28;20082;-90
2022/06/17 06:13:01;;;;;;;10.32;6.28;;;19.10;99.10;;;;;;5110468;28;20027;-89
2022/06/17 06:15:39;;;;;;;9.85;6.32;;;19.20;99.20;;;;;;5074778;28;20025;-89
2022/06/17 06:18:12;;;;;;;18.00;6.00;;;19.30;99.20;;;;;;5114747;28;20346;-89
2022/06/17 06:20:38;;;;;;;9.95;4.93;;;19.30;99.20;;;;;;5098537;28;20019;-89
2022/06/17 06:23:04;;;;;;;20.85;4.90;;;19.30;99.10;;;;;;5112385;28;20023;-89
2022/06/17 06:26:26;;;;;;;14.15;5.65;;;19.40;99.10;;;;;;5095774;28;20028;-89
2022/06/17 06:28:52;;;;;;;9.45;5.00;;;19.50;98.90;;;;;;5112905;28;20047;-89
2022/06/17 06:31:26;;;;;;;9.27;4.65;;;19.60;98.60;;;;;;5077215;28;20028;-89
2022/06/17 06:33:52;;;;;;;7.00;4.28;;;19.60;98.40;;;;;;5111829;28;20023;-89
2022/06/17 06:36:17;;;;;;;7.15;4.50;;;19.60;98.30;;;;;;5093406;28;20383;-89
2022/06/17 06:38:43;;;;;;;7.57;3.63;;;19.70;98.20;;;;;;5079099;28;20020;-90
2022/06/17 06:41:09;;;;;;;4.22;3.10;;;19.80;97.90;;;;;;5096399;28;20023;-90
2022/06/17 06:43:35;;;;;;;6.72;3.85;;;19.80;97.50;;;;;;5104411;28;20031;-89
2022/06/17 06:46:06;;;;;;;7.00;4.10;;;19.90;97.50;;;;;;5092115;28;20028;-89
2022/06/17 06:48:32;;;;;;;5.53;3.47;;;19.90;97.30;;;;;;5114720;28;20034;-89
2022/06/17 06:50:58;;;;;;;7.88;4.05;;;20.00;97.20;;;;;;5096423;28;20020;-89
2022/06/17 06:53:24;;;;;;;7.57;3.90;;;20.00;97.10;;;;;;5097221;28;20036;-89
2022/06/17 06:55:50;;;;;;;9.43;3.50;;;20.10;96.90;;;;;;5094135;28;20032;-89
2022/06/17 06:58:23;;;;;;;8.38;3.83;;;20.20;96.90;;;;;;5108332;28;20016;-90
2022/06/17 07:00:52;;;;;;;6.30;3.45;;;20.20;96.50;;;;;;5112544;28;20019;-89
2022/06/17 07:03:19;;;;;;;9.52;3.67;;;20.30;96.20;;;;;;5113814;28;20541;-89
2022/06/17 07:05:48;;;;;;;7.20;3.63;;;20.40;96.10;;;;;;5113865;28;20108;-89
2022/06/17 07:08:17;;;;;;;6.47;2.88;;;20.40;95.90;;;;;;5114211;28;20503;-89
2022/06/17 07:10:44;;;;;;;22.05;5.50;;;20.50;95.60;;;;;;5114814;28;20449;-89
2022/06/17 07:13:09;;;;;;;13.77;3.97;;;20.60;95.70;;;;;;5114130;28;20024;-88
2022/06/17 07:15:41;;;;;;;7.25;2.90;;;20.60;95.70;;;;;;5097229;28;20124;-88
2022/06/17 07:18:15;;;;;;;11.60;3.20;;;20.70;95.50;;;;;;5114553;28;20018;-89
2022/06/17 07:20:44;;;;;;;9.75;3.22;;;20.70;95.20;;;;;;5113567;28;20031;-89
2022/06/17 07:23:22;;;;;;;7.55;2.95;;;20.80;95.00;;;;;;5116356;28;20024;-89
2022/06/17 07:25:48;;;;;;;6.28;3.63;;;20.90;94.50;;;;;;5104411;28;20027;-89
2022/06/17 07:28:20;;;;;;;4.38;3.10;;;21.00;94.40;;;;;;5089036;28;20027;-89
2022/06/17 07:30:48;;;;;;;10.00;4.10;;;21.00;94.20;;;;;;5113136;28;20024;-89
2022/06/17 07:33:15;;;;;;;14.75;4.07;;;21.10;94.10;;;;;;5113287;28;20041;-89
2022/06/17 07:35:42;;;;;;;8.55;3.45;;;21.10;93.70;;;;;;5113916;28;20020;-90
2022/06/17 07:41:07;;;;;;;6.85;3.10;;;21.30;93.20;;;;;;5096260;28;20554;-90
2022/06/17 07:43:33;;;;;;;5.13;3.22;;;21.30;93.10;;;;;;5106678;28;20035;-89
2022/06/17 07:46:00;;;;;;;6.38;3.30;;;21.40;93.00;;;;;;5113429;28;20368;-90
2022/06/17 07:48:27;;;;;;;7.97;3.08;;;21.50;92.60;;;;;;5089536;28;20031;-90
2022/06/17 07:50:58;;;;;;;4.72;2.92;;;21.50;92.30;;;;;;5097285;28;20055;-90
2022/06/17 07:53:27;;;;;;;6.50;3.42;;;21.60;91.90;;;;;;5098336;28;20053;-90
2022/06/17 07:55:53;;;;;;;9.70;3.67;;;21.70;91.90;;;;;;5112193;28;20030;-88
2022/06/17 07:58:19;;;;;;;9.43;3.55;;;21.70;91.60;;;;;;5100474;28;20011;-88
2022/06/17 08:00:46;;;;;;;6.25;3.40;;;21.80;91.50;;;;;;5113531;28;20023;-87
2022/06/17 08:03:14;;;;;;;4.68;2.92;;;21.90;91.10;;;;;;5095340;28;20039;-86
2022/06/17 08:05:43;;;;;;;5.68;2.80;;;21.90;90.90;;;;;;5100264;28;20054;-86
2022/06/17 08:08:09;;;;;;;4.82;2.95;;;22.00;90.80;;;;;;5110519;28;20469;-88
2022/06/17 08:10:37;;;;;;;7.03;2.60;;;22.10;90.90;;;;;;5113018;28;20034;-89
2022/06/17 08:13:08;;;;;;;7.68;3.13;;;22.10;90.60;;;;;;5110946;28;20063;-88
2022/06/17 08:15:35;;;;;;;7.90;2.70;;;22.20;89.80;;;;;;5112654;28;20073;-85
2022/06/17 08:18:01;;;;;;;7.10;2.63;;;22.30;88.90;;;;;;5112272;28;20016;-86
2022/06/17 08:20:32;;;;;;;9.02;2.60;;;22.30;87.50;;;;;;5111701;28;20380;-85
2022/06/17 08:22:59;;;;;;;4.28;2.05;;;22.40;85.50;;;;;;5111839;28;20024;-86
2022/06/17 08:25:24;;;;;;;3.83;2.20;;;22.50;85.60;;;;;;5113303;28;20050;-85
2022/06/17 08:27:53;;;;;;;5.72;2.80;;;22.60;85.70;;;;;;5094875;28;20411;-86
2022/06/17 08:30:23;;;;;;;5.35;2.58;;;22.60;83.60;;;;;;5111951;28;20023;-85
2022/06/17 08:32:53;;;;;;;9.07;2.80;;;22.70;83.70;;;;;;5111863;28;20027;-85
2022/06/17 08:35:22;;;;;;;7.53;2.53;;;22.80;83.00;;;;;;5107118;28;20023;-85
2022/06/17 08:37:55;;;;;;;7.25;2.60;;;22.80;82.50;;;;;;5105463;28;20814;-85
2022/06/17 08:40:36;;;;;;;6.13;2.80;;;22.90;82.30;;;;;;5115878;28;20480;-85
2022/06/17 08:43:32;;;;;;;7.82;3.00;;;23.00;81.20;;;;;;5131586;27;20019;-86
2022/06/17 08:46:13;;;;;;;4.97;2.53;;;23.00;80.70;;;;;;5115806;28;20322;-84
2022/06/17 08:49:03;;;;;;;6.53;2.47;;;23.10;80.50;;;;;;5114436;28;20020;-84
2022/06/17 08:51:53;;;;;;;6.28;2.47;;;23.20;79.00;;;;;;5109460;28;20106;-85
2022/06/17 08:54:19;;;;;;;8.55;2.67;;;23.20;78.10;;;;;;5112145;28;20465;-85
2022/06/17 08:57:00;;;;;;;5.30;2.25;;;23.30;78.10;;;;;;5111634;28;20023;-84
2022/06/17 08:59:26;;;;;;;4.85;2.55;;;23.40;77.90;;;;;;5108841;28;20027;-86
2022/06/17 09:02:39;;;;;;;5.57;2.50;;;23.50;77.20;;;;;;5105423;28;20470;-86
2022/06/17 09:05:43;;;;;;;4.22;2.13;;;23.50;77.10;;;;;;5061771;28;20038;-86
2022/06/17 09:08:36;;;;;;;7.35;2.63;;;23.60;76.30;;;;;;5115788;28;20034;-85
2022/06/17 09:11:17;;;;;;;5.35;2.28;;;23.70;75.30;;;;;;5107400;27;20106;-86
2022/06/17 09:13:43;;;;;;;8.27;3.33;;;23.70;74.40;;;;;;5114507;28;20431;-85
2022/06/17 09:16:46;;;;;;;6.00;2.53;;;23.80;73.90;;;;;;5116573;28;20019;-86
2022/06/17 09:19:16;;;;;;;5.95;2.70;;;23.80;73.20;;;;;;5116589;28;20016;-86
2022/06/17 09:21:45;;;;;;;8.77;2.40;;;23.90;72.10;;;;;;5115830;28;20048;-85
2022/06/17 09:24:16;;;;;;;6.57;2.72;;;23.90;71.60;;;;;;5116283;28;20269;-87
2022/06/17 09:27:02;;;;;;;6.65;2.70;;;24.00;71.00;;;;;;5106941;28;20020;-87
2022/06/17 09:29:52;;;;;;;6.43;2.42;;;24.10;70.70;;;;;;5112636;28;20508;-87
2022/06/17 09:32:49;;;;;;;6.60;2.80;;;24.20;70.60;;;;;;5115609;28;20023;-87
2022/06/17 09:35:29;;;;;;;5.72;2.42;;;24.20;70.40;;;;;;5116608;28;20472;-87
2022/06/17 09:38:13;;;;;;;5.57;2.83;;;24.30;70.30;;;;;;5115394;28;20026;-87
2022/06/17 09:40:45;;;;;;;5.35;2.28;;;24.30;70.20;;;;;;5115392;28;20492;-87
2022/06/17 09:43:14;;;;;;;7.85;3.00;;;24.50;70.20;;;;;;5115550;28;20389;-87
2022/06/17 09:45:53;;;;;;;8.15;3.80;;;24.50;68.80;;;;;;5114178;28;20495;-87
2022/06/17 09:48:39;;;;;;;7.10;3.00;;;24.50;68.10;;;;;;5104296;28;20020;-88
2022/06/17 09:54:38;;;;;;;7.15;2.90;;;24.60;67.50;;;;;;5116158;28;20042;-87
2022/06/17 09:57:35;;;;;;;5.82;2.70;;;24.70;67.10;;;;;;5115284;28;20020;-87
2022/06/17 10:00:05;;;;;;;6.45;2.45;;;24.80;66.00;;;;;;5115020;28;20526;-87
2022/06/17 10:02:50;;;;;;;5.35;2.17;;;24.80;66.40;;;;;;5114667;28;20015;-86
2022/06/17 10:05:37;;;;;;;6.72;2.58;;;24.90;66.70;;;;;;5114655;28;20103;-86
2022/06/17 10:08:19;;;;;;;6.47;2.38;;;24.90;66.90;;;;;;5114699;28;20035;-86
2022/06/17 10:11:04;;;;;;;5.35;2.30;;;25.00;67.10;;;;;;5114797;28;20513;-87
2022/06/17 10:13:38;;;;;;;4.32;2.42;;;25.00;66.90;;;;;;5093976;28;20028;-87
2022/06/17 10:19:40;;;;;;;5.53;2.97;;;25.20;67.00;;;;;;5115915;28;20077;-88
2022/06/17 10:22:06;;;;;;;5.50;2.70;;;25.20;66.50;;;;;;5114738;28;20024;-87
2022/06/17 10:24:44;;;;;;;4.90;2.20;;;25.30;66.30;;;;;;5114258;28;20435;-87
2022/06/17 10:27:28;;;;;;;7.63;2.72;;;25.30;65.50;;;;;;5094955;28;20102;-87
2022/06/17 10:30:32;;;;;;;8.10;2.90;;;25.40;64.00;;;;;;5109265;28;20026;-88
2022/06/17 10:32:58;;;;;;;6.93;2.40;;;25.50;64.00;;;;;;5108470;28;20107;-88
2022/06/17 10:35:31;;;;;;;6.28;3.00;;;25.50;64.40;;;;;;5113846;28;20111;-85
2022/06/17 10:38:04;;;;;;;5.15;2.03;;;25.60;63.40;;;;;;5111078;28;20083;-87
2022/06/17 10:40:33;;;;;;;6.57;2.85;;;25.60;62.80;;;;;;5112668;28;20372;-86
2022/06/17 10:43:04;;;;;;;9.40;2.90;;;25.60;62.40;;;;;;5114248;28;20033;-88
2022/06/17 10:45:31;;;;;;;5.65;2.85;;;25.70;62.50;;;;;;5114412;28;20043;-88
2022/06/17 10:48:05;;;;;;;7.78;2.92;;;25.80;62.10;;;;;;5077574;28;20054;-87
2022/06/17 10:50:32;;;;;;;4.20;2.42;;;25.90;62.10;;;;;;5106572;28;20143;-86
2022/06/17 10:53:16;;;;;;;5.07;2.40;;;25.90;61.80;;;;;;5112238;28;20035;-88
2022/06/17 10:55:51;;;;;;;4.80;2.30;;;25.90;61.90;;;;;;5113744;28;20012;-88
2022/06/17 10:58:21;;;;;;;5.90;2.95;;;26.00;62.10;;;;;;5112280;28;20443;-88
2022/06/17 11:00:58;;;;;;;5.50;2.55;;;26.00;61.30;;;;;;5113250;28;20020;-88
2022/06/17 11:03:37;;;;;;;4.35;1.85;;;26.10;62.10;;;;;;5113599;28;20498;-87
2022/06/17 11:06:08;;;;;;;4.50;2.17;;;26.20;63.30;;;;;;5113517;28;20576;-88
2022/06/17 11:09:01;;;;;;;4.20;1.92;;;26.30;62.60;;;;;;5109979;28;20111;-87
2022/06/17 11:14:29;;;;;;;5.57;2.30;;;26.30;61.10;;;;;;5113177;28;20049;-87
2022/06/17 11:16:55;;;;;;;3.72;2.40;;;26.40;60.90;;;;;;5126055;27;20024;-87
2022/06/17 11:19:24;;;;;;;7.35;2.08;;;26.50;60.70;;;;;;5094830;28;20031;-87
2022/06/17 11:22:00;;;;;;;5.68;2.30;;;26.50;60.00;;;;;;5113869;28;20051;-88
2022/06/17 11:24:34;;;;;;;6.60;2.00;;;26.60;59.90;;;;;;5113932;28;20102;-87
2022/06/17 11:27:22;;;;;;;4.18;1.67;;;26.60;59.70;;;;;;5116897;28;20020;-87
2022/06/17 11:29:50;;;;;;;7.55;2.10;;;26.70;58.40;;;;;;5115593;28;20027;-87
2022/06/17 11:32:19;;;;;;;3.53;1.92;;;26.80;56.60;;;;;;5117351;28;20468;-87
2022/06/17 11:34:55;;;;;;;4.30;2.25;;;26.80;57.00;;;;;;5116026;28;20027;-86
2022/06/17 11:37:27;;;;;;;4.47;1.95;;;26.80;58.10;;;;;;5113742;28;20027;-87
2022/06/17 11:40:17;;;;;;;3.10;2.05;;;26.90;57.90;;;;;;5113705;28;20057;-87
2022/06/17 11:42:54;;;;;;;5.60;2.30;;;27.00;56.30;;;;;;5111192;28;20016;-87
2022/06/17 11:45:41;;;;;;;4.55;2.67;;;27.00;57.40;;;;;;5112773;28;20015;-86
2022/06/17 11:48:19;;;;;;;5.60;2.22;;;27.10;55.60;;;;;;5098323;28;20020;-86
2022/06/17 11:51:07;;;;;;;6.93;2.70;;;27.20;56.00;;;;;;5112992;28;20500;-87
2022/06/17 11:53:52;;;;;;;4.80;2.58;;;27.20;57.00;;;;;;5096806;28;20088;-87
2022/06/17 11:56:37;;;;;;;6.80;3.00;;;27.30;57.30;;;;;;5105791;28;20020;-87
2022/06/17 11:59:23;;;;;;;4.10;2.65;;;27.40;56.10;;;;;;5100817;28;20024;-87
2022/06/17 12:01:54;;;;;;;5.32;2.97;;;27.40;56.40;;;;;;5113792;28;20016;-86
2022/06/17 12:04:46;;;;;;;8.45;2.90;;;27.50;55.20;;;;;;5114980;28;20032;-88
2022/06/17 12:07:39;;;;;;;2.95;2.10;;;27.50;55.30;;;;;;5114390;28;20048;-88
2022/06/17 12:10:20;;;;;;;5.47;2.40;;;27.60;55.70;;;;;;5101497;28;20038;-87
2022/06/17 12:12:49;;;;;;;5.78;3.30;;;27.70;56.10;;;;;;5098234;28;20020;-87
2022/06/17 12:15:20;;;;;;;5.32;2.72;;;27.70;55.80;;;;;;5112510;28;20096;-87
2022/06/17 12:17:46;;;;;;;5.22;3.22;;;27.80;55.50;;;;;;5112679;28;20027;-87
2022/06/17 12:20:43;;;;;;;7.32;3.22;;;27.90;54.70;;;;;;5092666;28;20027;-87
2022/06/17 12:23:26;;;;;;;5.28;3.22;;;27.90;54.40;;;;;;5107492;28;20024;-87
2022/06/17 12:26:35;;;;;;;5.60;3.72;;;28.00;54.20;;;;;;5094077;28;20050;-85
2022/06/17 12:29:09;;;;;;;6.82;3.15;;;28.10;54.10;;;;;;5092331;28;20020;-86
2022/06/17 12:31:55;;;;;;;5.90;3.03;;;28.10;54.30;;;;;;5106737;28;20028;-86
2022/06/17 12:34:47;;;;;;;11.77;3.25;;;28.20;54.90;;;;;;5111920;28;20026;-87
2022/06/17 12:37:39;;;;;;;10.95;3.58;;;28.30;54.10;;;;;;5114374;28;20015;-87
2022/06/17 12:40:45;;;;;;;8.00;2.80;;;28.30;54.10;;;;;;5115143;28;20028;-87
2022/06/17 12:43:26;;;;;;;8.40;3.50;;;28.40;54.30;;;;;;5039578;28;20506;-87
2022/06/17 12:46:00;;;;;;;;;;;28.50;54.70;;;;;;5055294;28;20067;-87
2022/06/17 12:53:13;;;;;;;7.18;3.30;;;28.40;53.00;;;;;;5084168;28;19904;-88
2022/06/17 12:54:58;;;;;;;6.22;3.65;;;28.50;51.90;;;;;;5097584;28;20570;-87
2022/06/17 12:57:39;;;;;;;7.07;3.35;;;28.60;52.30;;;;;;5102855;28;20080;-87
2022/06/17 13:00:34;;;;;;;4.65;2.63;;;28.60;51.60;;;;;;5117515;28;20027;-87
2022/06/17 13:03:29;;;;;;;3.20;2.10;;;28.60;51.60;;;;;;5116616;28;20016;-87
2022/06/17 13:13:09;;;;;;;6.10;3.55;;;28.80;52.30;;;;;;5116301;28;20046;-87
2022/06/17 13:15:48;;;;;;;12.77;3.90;;;28.80;52.10;;;;;;5112444;28;20472;-88
2022/06/17 13:18:30;;;;;;;8.93;4.70;;;28.90;52.50;;;;;;5086186;28;20024;-87
2022/06/17 13:20:59;;;;;;;8.10;4.15;;;29.00;52.00;;;;;;5115800;28;20062;-88
2022/06/17 13:26:54;;;;;;;10.10;3.38;;;29.10;52.80;;;;;;5112097;28;20034;-87
2022/06/17 13:29:22;;;;;;;4.70;2.88;;;29.20;53.20;;;;;;5115660;28;20087;-87
2022/06/17 13:31:53;;;;;;;6.15;3.05;;;29.20;53.30;;;;;;5106964;28;20477;-87
2022/06/17 13:37:49;;;;;;;6.82;3.10;;;29.30;52.60;;;;;;5112741;28;20077;-87
2022/06/17 13:40:26;;;;;;;7.15;2.80;;;29.40;52.70;;;;;;5094111;28;20016;-86
2022/06/17 13:42:58;;;;;;;4.43;2.50;;;29.40;52.70;;;;;;5114015;28;20020;-85
2022/06/17 13:45:44;;;;;;;9.55;2.58;;;29.50;52.90;;;;;;5111675;28;20472;-85
2022/06/17 13:48:15;;;;;;;5.88;2.58;;;29.60;53.40;;;;;;5114467;28;20063;-86
2022/06/17 13:51:12;;;;;;;5.63;2.40;;;29.60;52.90;;;;;;5115013;28;20016;-87
2022/06/17 13:53:49;;;;;;;4.15;2.13;;;29.60;53.40;;;;;;5115161;28;20034;-87
2022/06/17 13:56:29;;;;;;;5.45;2.22;;;29.70;54.10;;;;;;5101854;28;20027;-88
2022/06/17 13:59:06;;;;;;;5.25;2.10;;;29.70;53.50;;;;;;5115041;28;20024;-87